Time;durP1;ratioP1;P1;durP2;ratioP2;P2;SDS_P1;SDS_P2;PMS_P1;PMS_P2;Temp;Humidity;BMP_temperature;BMP_pressure;BME280_temperature;BME280_humidity;BME280_pressure;Samples;Min_cycle;Max_cycle;Signal;HPM_P1;HPM_P2
2024/04/24 00:00:08;;;;;;;7.60;3.87;;;4.80;67.20;;;;;;5402678;26;20301;-73
2024/04/24 00:02:33;;;;;;;9.07;4.70;;;4.80;67.70;;;;;;5400343;26;20253;-72
2024/04/24 00:05:02;;;;;;;5.30;3.97;;;4.70;67.50;;;;;;5403852;26;21093;-71
2024/04/24 00:07:28;;;;;;;7.90;4.23;;;4.70;67.70;;;;;;5369179;26;20621;-74
2024/04/24 00:09:54;;;;;;;6.03;4.60;;;4.70;67.90;;;;;;5397217;26;20509;-75
2024/04/24 00:12:19;;;;;;;7.97;4.83;;;4.50;67.90;;;;;;5402352;26;20475;-71
2024/04/24 00:14:45;;;;;;;7.20;4.13;;;4.50;68.30;;;;;;5393914;26;20241;-72
2024/04/24 00:17:11;;;;;;;11.70;4.40;;;4.40;68.30;;;;;;5407322;26;20229;-73
2024/04/24 00:19:37;;;;;;;6.67;4.20;;;4.50;68.50;;;;;;5399139;26;20286;-72
2024/04/24 00:22:03;;;;;;;8.37;3.93;;;4.50;68.80;;;;;;5401472;26;20487;-72
2024/04/24 00:24:29;;;;;;;6.70;3.73;;;4.40;68.90;;;;;;5406615;26;20968;-72
2024/04/24 00:26:55;;;;;;;8.80;3.50;;;4.30;69.40;;;;;;5411203;26;20229;-72
2024/04/24 00:29:23;;;;;;;7.63;4.20;;;4.20;69.40;;;;;;5405224;26;20524;-72
2024/04/24 00:31:50;;;;;;;6.77;4.00;;;4.10;69.50;;;;;;5404291;26;20467;-71
2024/04/24 00:34:15;;;;;;;6.97;4.27;;;4.10;69.50;;;;;;5400335;26;20579;-73
2024/04/24 00:36:41;;;;;;;8.03;4.07;;;4.10;69.80;;;;;;5399696;26;20487;-72
2024/04/24 00:39:07;;;;;;;8.37;4.37;;;4.00;69.80;;;;;;5402006;26;20747;-72
2024/04/24 00:41:32;;;;;;;7.60;4.53;;;4.10;70.20;;;;;;5399187;26;20259;-72
2024/04/24 00:43:58;;;;;;;10.73;4.40;;;4.00;70.20;;;;;;5398675;26;20285;-74
2024/04/24 00:46:26;;;;;;;8.90;4.60;;;4.00;70.40;;;;;;5408759;26;20226;-74
2024/04/24 00:48:53;;;;;;;6.67;4.40;;;4.00;70.50;;;;;;5409978;26;20983;-74
2024/04/24 00:51:21;;;;;;;6.50;4.63;;;4.00;70.70;;;;;;5405923;26;20477;-73
2024/04/24 00:53:47;;;;;;;7.43;4.13;;;3.90;70.80;;;;;;5410104;26;20464;-70
2024/04/24 00:56:12;;;;;;;6.20;4.13;;;4.00;71.00;;;;;;5409278;26;20527;-71
2024/04/24 00:58:38;;;;;;;8.43;4.10;;;3.90;71.00;;;;;;5410316;26;21031;-73
2024/04/24 01:01:05;;;;;;;8.70;4.83;;;3.80;71.00;;;;;;5409832;26;20320;-75
2024/04/24 01:03:32;;;;;;;6.80;4.30;;;3.80;71.00;;;;;;5411725;26;20479;-71
2024/04/24 01:05:57;;;;;;;8.47;5.33;;;3.80;71.00;;;;;;5411293;26;20463;-72
2024/04/24 01:08:23;;;;;;;9.83;5.20;;;3.80;71.00;;;;;;5405097;26;20452;-73
2024/04/24 01:10:58;;;;;;;9.40;5.00;;;3.80;71.30;;;;;;5398179;26;20281;-71
2024/04/24 01:13:26;;;;;;;9.70;5.10;;;3.90;71.30;;;;;;5399632;26;20534;-74
2024/04/24 01:16:08;;;;;;;9.63;5.33;;;3.90;71.00;;;;;;5406782;26;20576;-72
2024/04/24 01:18:39;;;;;;;8.07;4.60;;;4.00;71.30;;;;;;5411282;26;20495;-73
2024/04/24 01:21:06;;;;;;;6.33;4.23;;;4.10;71.10;;;;;;5407819;26;20479;-74
2024/04/24 01:23:35;;;;;;;7.00;4.50;;;4.00;71.30;;;;;;5397692;26;21058;-76
2024/04/24 01:26:07;;;;;;;12.20;5.80;;;3.90;71.30;;;;;;5407775;26;20603;-73
2024/04/24 01:28:33;;;;;;;10.10;5.00;;;3.90;71.40;;;;;;5404510;26;20464;-73
2024/04/24 01:31:02;;;;;;;7.90;4.83;;;3.80;71.40;;;;;;5401594;26;21094;-77
2024/04/24 01:33:27;;;;;;;8.83;4.70;;;3.80;71.60;;;;;;5396446;26;20463;-73
2024/04/24 01:35:53;;;;;;;7.60;4.83;;;3.70;71.60;;;;;;5406254;26;20447;-71
2024/04/24 01:38:18;;;;;;;8.50;5.00;;;3.70;71.60;;;;;;5407953;26;20287;-73
2024/04/24 01:40:44;;;;;;;9.27;5.17;;;3.90;71.70;;;;;;5372718;26;20846;-72
2024/04/24 01:43:12;;;;;;;9.13;4.80;;;4.00;71.60;;;;;;5403389;26;20541;-73
2024/04/24 01:45:39;;;;;;;9.97;5.13;;;4.00;71.40;;;;;;5407601;26;20651;-72
2024/04/24 01:48:05;;;;;;;7.70;4.50;;;4.00;71.40;;;;;;5407670;26;20502;-74
2024/04/24 01:50:30;;;;;;;8.20;4.87;;;4.10;71.40;;;;;;5408553;26;20470;-71
2024/04/24 01:52:56;;;;;;;8.30;5.07;;;4.20;71.40;;;;;;5409562;26;20573;-72
2024/04/24 01:55:21;;;;;;;10.07;5.43;;;4.20;71.30;;;;;;5414964;26;20250;-72
2024/04/24 01:57:47;;;;;;;8.90;5.40;;;4.30;71.40;;;;;;5407882;26;20822;-72
2024/04/24 02:00:12;;;;;;;10.70;5.40;;;4.40;71.10;;;;;;5412978;26;20270;-72
2024/04/24 02:02:38;;;;;;;8.20;4.80;;;4.40;70.70;;;;;;5411250;26;20350;-74
2024/04/24 02:05:04;;;;;;;6.67;4.70;;;4.50;70.80;;;;;;5414879;26;20353;-74
2024/04/24 02:07:30;;;;;;;6.57;4.10;;;4.60;70.80;;;;;;5420534;26;20237;-72
2024/04/24 02:09:55;;;;;;;9.80;4.27;;;4.70;70.70;;;;;;5417141;26;20565;-73
2024/04/24 02:12:21;;;;;;;8.37;4.87;;;4.80;70.70;;;;;;5409571;26;20239;-77
2024/04/24 02:14:47;;;;;;;7.00;4.70;;;4.80;70.70;;;;;;5408096;26;20760;-73
2024/04/24 02:17:12;;;;;;;7.77;5.27;;;4.80;70.70;;;;;;5412055;26;21273;-72
2024/04/24 02:19:40;;;;;;;12.07;5.47;;;4.80;70.50;;;;;;5416946;26;20233;-72
2024/04/24 02:22:06;;;;;;;8.53;5.30;;;4.80;69.50;;;;;;5401180;26;20238;-71
2024/04/24 02:27:16;;;;;;;12.50;6.23;;;4.80;69.40;;;;;;5406813;26;20328;-74
2024/04/24 02:29:41;;;;;;;11.60;5.83;;;4.70;69.50;;;;;;5412736;26;20467;-73
2024/04/24 02:32:07;;;;;;;8.70;5.00;;;4.60;69.80;;;;;;5419819;26;20770;-71
2024/04/24 02:34:32;;;;;;;8.17;5.27;;;4.60;69.90;;;;;;5420690;26;20287;-72
2024/04/24 02:36:59;;;;;;;8.37;5.10;;;4.70;69.80;;;;;;5423154;26;20280;-72
2024/04/24 02:39:25;;;;;;;8.73;5.83;;;4.60;70.20;;;;;;5412162;26;20768;-75
2024/04/24 02:41:50;;;;;;;10.10;5.43;;;4.60;70.40;;;;;;5402944;26;20479;-72
2024/04/24 02:44:16;;;;;;;11.00;6.13;;;4.70;70.50;;;;;;5410489;26;20618;-71
2024/04/24 02:46:41;;;;;;;9.47;5.53;;;4.80;70.10;;;;;;5406931;26;20351;-74
2024/04/24 02:49:07;;;;;;;7.27;4.97;;;4.80;70.10;;;;;;5417546;26;20299;-72
2024/04/24 02:51:33;;;;;;;7.43;5.17;;;4.80;70.40;;;;;;5416436;26;20242;-72
2024/04/24 02:53:58;;;;;;;6.83;5.33;;;4.80;70.40;;;;;;5411015;26;20635;-72
2024/04/24 02:56:24;;;;;;;8.63;4.90;;;4.80;70.70;;;;;;5414371;26;20272;-72
2024/04/24 02:58:49;;;;;;;9.90;6.40;;;4.60;70.70;;;;;;5408407;26;20241;-73
2024/04/24 03:01:15;;;;;;;8.90;5.10;;;4.50;70.80;;;;;;5408622;26;20349;-75
2024/04/24 03:03:41;;;;;;;8.50;5.60;;;4.50;71.10;;;;;;5411009;26;20323;-72
2024/04/24 03:06:06;;;;;;;9.20;5.40;;;4.50;71.30;;;;;;5378248;26;20247;-72
2024/04/24 03:08:32;;;;;;;9.20;5.00;;;4.50;71.30;;;;;;5406225;26;20234;-72
2024/04/24 03:10:58;;;;;;;10.07;5.87;;;4.50;71.60;;;;;;5408553;26;20733;-76
2024/04/24 03:13:23;;;;;;;8.53;5.57;;;4.50;71.10;;;;;;5405792;26;20301;-71
2024/04/24 03:15:49;;;;;;;8.63;5.83;;;4.50;71.10;;;;;;5411375;26;20249;-73
2024/04/24 03:18:14;;;;;;;10.80;5.63;;;4.50;71.10;;;;;;5404995;26;20233;-74
2024/04/24 03:20:40;;;;;;;9.63;5.80;;;4.50;71.10;;;;;;5355610;26;20271;-73
2024/04/24 03:23:06;;;;;;;12.37;6.97;;;4.50;71.10;;;;;;5407939;26;20358;-74
2024/04/24 03:25:31;;;;;;;12.77;6.70;;;4.40;71.30;;;;;;5403818;26;20242;-71
2024/04/24 03:27:57;;;;;;;10.47;5.97;;;4.40;71.40;;;;;;5406295;26;20229;-71
2024/04/24 03:30:22;;;;;;;10.60;6.43;;;4.40;71.10;;;;;;5411864;26;20702;-72
2024/04/24 03:32:48;;;;;;;10.63;6.40;;;4.40;71.30;;;;;;5405828;26;20241;-73
2024/04/24 03:35:14;;;;;;;10.37;6.90;;;4.20;71.10;;;;;;5407551;26;20317;-74
2024/04/24 03:37:39;;;;;;;10.87;7.10;;;4.10;71.30;;;;;;5410303;26;20245;-72
2024/04/24 03:40:06;;;;;;;11.27;6.70;;;4.00;71.70;;;;;;5407738;26;20747;-72
2024/04/24 03:42:31;;;;;;;10.47;7.23;;;4.00;71.80;;;;;;5406706;26;20330;-75
2024/04/24 03:44:57;;;;;;;10.80;7.10;;;3.90;71.80;;;;;;5421776;26;21028;-72
2024/04/24 03:47:23;;;;;;;11.37;6.43;;;3.80;71.80;;;;;;5425029;26;20296;-73
2024/04/24 03:49:48;;;;;;;12.17;6.53;;;3.70;71.70;;;;;;5416453;26;20237;-73
2024/04/24 03:52:14;;;;;;;12.13;7.03;;;3.70;71.80;;;;;;5418576;26;20285;-76
2024/04/24 03:54:40;;;;;;;9.27;6.40;;;3.90;71.80;;;;;;5413140;26;20800;-72
2024/04/24 03:57:05;;;;;;;9.03;6.13;;;3.90;71.70;;;;;;5417588;26;20241;-72
2024/04/24 03:59:31;;;;;;;14.50;6.77;;;3.90;71.40;;;;;;5382885;26;20242;-72
2024/04/24 04:01:56;;;;;;;12.03;7.27;;;3.90;71.60;;;;;;5406400;26;20243;-73
2024/04/24 04:04:22;;;;;;;11.20;7.27;;;3.80;71.70;;;;;;5412421;26;20238;-74
2024/04/24 04:06:48;;;;;;;11.97;7.40;;;3.70;71.70;;;;;;5412000;26;20287;-72
2024/04/24 04:09:13;;;;;;;10.60;6.90;;;3.70;71.80;;;;;;5414600;26;20245;-73
2024/04/24 04:11:39;;;;;;;11.90;6.97;;;3.70;72.00;;;;;;5410274;26;20269;-77
2024/04/24 04:14:04;;;;;;;12.40;7.30;;;3.70;71.80;;;;;;5409304;26;20372;-76
2024/04/24 04:16:31;;;;;;;13.13;7.37;;;3.90;72.00;;;;;;5401610;26;20273;-71
2024/04/24 04:18:57;;;;;;;12.60;6.90;;;3.90;71.60;;;;;;5418618;26;20230;-74
2024/04/24 04:21:23;;;;;;;11.73;6.20;;;3.80;71.60;;;;;;5412503;26;20539;-73
2024/04/24 04:23:48;;;;;;;14.53;7.60;;;3.80;71.70;;;;;;5419483;26;20322;-72
2024/04/24 04:26:14;;;;;;;10.90;6.70;;;3.80;71.70;;;;;;5412072;26;20269;-75
2024/04/24 04:28:39;;;;;;;9.43;6.73;;;3.70;71.80;;;;;;5400826;26;20234;-71
2024/04/24 04:31:05;;;;;;;9.77;6.83;;;3.70;71.80;;;;;;5404683;26;20284;-73
2024/04/24 04:33:31;;;;;;;16.20;9.30;;;3.70;71.80;;;;;;5406926;26;20280;-73
2024/04/24 04:35:56;;;;;;;16.30;8.83;;;3.70;72.00;;;;;;5404671;26;20830;-71
2024/04/24 04:38:22;;;;;;;14.33;8.10;;;3.80;72.10;;;;;;5407078;26;20471;-71
2024/04/24 04:40:48;;;;;;;11.00;6.40;;;3.80;72.00;;;;;;5412926;26;20241;-72
2024/04/24 04:43:13;;;;;;;16.57;7.80;;;3.90;72.00;;;;;;5405271;26;20336;-74
2024/04/24 04:45:39;;;;;;;11.90;7.10;;;4.00;71.70;;;;;;5414551;26;20246;-74
2024/04/24 04:48:08;;;;;;;14.83;8.20;;;4.00;71.70;;;;;;5406556;26;20337;-74
2024/04/24 04:50:33;;;;;;;14.63;7.67;;;3.90;71.70;;;;;;5412523;26;20280;-72
2024/04/24 04:52:59;;;;;;;17.73;8.50;;;3.70;71.80;;;;;;5407044;26;21018;-74
2024/04/24 04:55:24;;;;;;;15.77;8.20;;;3.60;71.80;;;;;;5408355;26;20252;-71
2024/04/24 04:57:51;;;;;;;15.43;7.57;;;3.60;72.00;;;;;;5411553;26;20369;-71
2024/04/24 05:00:17;;;;;;;12.10;7.97;;;3.50;72.10;;;;;;5410569;26;20349;-73
2024/04/24 05:02:44;;;;;;;14.20;7.97;;;3.50;72.10;;;;;;5400609;26;20479;-72
2024/04/24 05:05:10;;;;;;;12.57;7.30;;;3.60;72.00;;;;;;5409360;26;20587;-74
2024/04/24 05:07:36;;;;;;;13.17;7.60;;;3.50;72.10;;;;;;5409646;26;20890;-71
2024/04/24 05:10:02;;;;;;;13.83;7.13;;;3.40;72.30;;;;;;5414379;26;20459;-74
2024/04/24 05:12:27;;;;;;;13.93;8.30;;;3.40;72.30;;;;;;5403684;26;20294;-72
2024/04/24 05:14:53;;;;;;;11.87;8.07;;;3.40;72.30;;;;;;5375951;26;20616;-74
2024/04/24 05:17:19;;;;;;;11.53;7.30;;;3.50;72.30;;;;;;5416488;26;20237;-72
2024/04/24 05:19:44;;;;;;;14.20;7.60;;;3.50;72.40;;;;;;5413992;26;20727;-75
2024/04/24 05:22:10;;;;;;;14.60;8.77;;;3.60;72.10;;;;;;5411341;26;20250;-72
2024/04/24 05:24:36;;;;;;;12.97;7.30;;;3.70;72.00;;;;;;5393765;26;20237;-73
2024/04/24 05:29:46;;;;;;;15.30;7.23;;;3.80;71.80;;;;;;5409783;26;20586;-71
2024/04/24 05:32:12;;;;;;;12.73;7.20;;;4.00;71.70;;;;;;5394612;26;20544;-72
2024/04/24 05:34:38;;;;;;;14.90;7.70;;;4.10;71.30;;;;;;5379040;26;20469;-74
2024/04/24 05:37:03;;;;;;;11.10;6.90;;;4.20;71.10;;;;;;5411734;26;21122;-74
2024/04/24 05:39:29;;;;;;;13.43;6.80;;;4.20;70.70;;;;;;5411413;26;20245;-73
2024/04/24 05:41:54;;;;;;;13.43;7.37;;;4.20;71.00;;;;;;5408795;26;20486;-73
2024/04/24 05:44:21;;;;;;;10.00;6.17;;;4.30;70.50;;;;;;5408506;26;20233;-73
2024/04/24 05:46:46;;;;;;;10.30;6.10;;;4.30;70.50;;;;;;5410236;26;20293;-72
2024/04/24 05:49:12;;;;;;;14.50;7.10;;;4.40;70.20;;;;;;5415732;26;20459;-75
2024/04/24 05:51:37;;;;;;;11.93;6.47;;;4.50;70.40;;;;;;5415059;26;20243;-74
2024/04/24 05:54:03;;;;;;;11.63;6.77;;;4.60;70.20;;;;;;5407456;26;20249;-75
2024/04/24 05:56:28;;;;;;;9.73;6.93;;;4.70;69.80;;;;;;5416906;26;20292;-72
2024/04/24 05:58:54;;;;;;;10.23;6.70;;;4.80;69.70;;;;;;5416119;26;20229;-74
2024/04/24 06:01:20;;;;;;;11.73;5.70;;;4.80;69.50;;;;;;5407584;26;20265;-74
2024/04/24 06:03:45;;;;;;;8.77;6.07;;;4.80;69.50;;;;;;5401023;26;20313;-74
2024/04/24 06:06:11;;;;;;;10.93;5.87;;;4.80;69.70;;;;;;5409590;26;20285;-74
2024/04/24 06:08:37;;;;;;;9.83;6.20;;;4.90;69.50;;;;;;5412828;26;20233;-72
2024/04/24 06:11:02;;;;;;;10.13;5.90;;;4.90;69.40;;;;;;5422633;26;20275;-75
2024/04/24 06:13:28;;;;;;;11.83;7.03;;;5.00;69.40;;;;;;5407535;26;20241;-76
2024/04/24 06:15:53;;;;;;;12.27;7.17;;;5.10;69.20;;;;;;5417198;26;20245;-76
2024/04/24 06:18:19;;;;;;;13.37;6.10;;;5.10;68.90;;;;;;5420390;26;20279;-75
2024/04/24 06:20:44;;;;;;;12.30;6.80;;;5.20;68.80;;;;;;5417218;26;20780;-77
2024/04/24 06:23:10;;;;;;;10.27;6.30;;;5.30;68.60;;;;;;5399723;26;20362;-73
2024/04/24 06:25:36;;;;;;;11.47;6.70;;;5.50;68.60;;;;;;5418917;26;20331;-76
2024/04/24 06:28:01;;;;;;;9.37;6.17;;;5.70;68.30;;;;;;5380159;26;20238;-74
2024/04/24 06:30:27;;;;;;;13.00;6.80;;;5.80;68.00;;;;;;5417464;26;20237;-73
2024/04/24 06:32:52;;;;;;;7.80;4.40;;;6.00;67.90;;;;;;5411477;26;20253;-75
2024/04/24 06:35:20;;;;;;;13.40;7.10;;;6.20;66.60;;;;;;5422860;26;20241;-73
2024/04/24 06:37:50;;;;;;;9.83;6.20;;;6.20;66.70;;;;;;5425607;26;20241;-75
2024/04/24 06:40:15;;;;;;;15.53;8.50;;;6.30;66.40;;;;;;5408913;26;20475;-73
2024/04/24 06:42:41;;;;;;;13.70;7.60;;;6.40;66.40;;;;;;5409877;26;20920;-74
2024/04/24 06:45:07;;;;;;;12.20;8.00;;;6.40;66.10;;;;;;5378895;26;20244;-73
2024/04/24 06:47:32;;;;;;;14.50;7.07;;;6.50;66.10;;;;;;5403636;26;20239;-74
2024/04/24 06:49:58;;;;;;;13.40;7.53;;;6.60;66.00;;;;;;5397588;26;20238;-72
2024/04/24 06:52:23;;;;;;;12.50;8.07;;;6.60;65.80;;;;;;5389617;26;20239;-75
2024/04/24 06:54:49;;;;;;;14.70;8.20;;;6.60;65.40;;;;;;5411492;26;20229;-73
2024/04/24 06:57:16;;;;;;;15.80;9.30;;;6.80;65.40;;;;;;5400795;26;20242;-74
2024/04/24 06:59:44;;;;;;;16.80;8.57;;;6.90;65.30;;;;;;5402389;26;20237;-73
2024/04/24 07:02:10;;;;;;;16.67;8.70;;;7.00;64.70;;;;;;5401813;26;20479;-72
2024/04/24 07:04:35;;;;;;;15.13;8.40;;;7.00;64.10;;;;;;5401151;26;20880;-73
2024/04/24 07:07:01;;;;;;;13.47;8.00;;;7.00;64.70;;;;;;5408148;26;20271;-73
2024/04/24 07:09:27;;;;;;;17.43;8.80;;;7.00;64.40;;;;;;5411398;26;20542;-75
2024/04/24 07:11:52;;;;;;;13.37;8.67;;;7.00;64.80;;;;;;5411857;26;20245;-75
2024/04/24 07:14:18;;;;;;;16.17;9.47;;;7.10;64.80;;;;;;5416469;26;20275;-72
2024/04/24 07:16:43;;;;;;;15.20;8.80;;;7.30;64.70;;;;;;5410345;26;20230;-72
2024/04/24 07:19:09;;;;;;;16.40;10.17;;;7.30;64.20;;;;;;5414851;26;20979;-73
2024/04/24 07:21:34;;;;;;;19.47;10.10;;;7.30;63.50;;;;;;5405295;26;20292;-75
2024/04/24 07:24:00;;;;;;;15.83;10.20;;;6.90;63.70;;;;;;5414068;26;20229;-72
2024/04/24 07:26:25;;;;;;;15.57;9.67;;;6.90;64.50;;;;;;5401585;26;20350;-73
2024/04/24 07:28:51;;;;;;;20.10;12.23;;;6.80;65.00;;;;;;5411288;26;20234;-72
2024/04/24 07:31:17;;;;;;;17.17;11.07;;;6.40;65.80;;;;;;5397669;26;20237;-73
2024/04/24 07:33:43;;;;;;;19.33;11.53;;;6.30;66.90;;;;;;5411199;26;20516;-74
2024/04/24 07:36:08;;;;;;;19.10;11.67;;;6.40;66.70;;;;;;5408303;26;20253;-73
2024/04/24 07:38:34;;;;;;;19.80;11.17;;;6.40;68.20;;;;;;5406734;26;20238;-75
2024/04/24 07:41:01;;;;;;;21.80;13.10;;;6.20;69.40;;;;;;5405665;26;20234;-76
2024/04/24 07:43:27;;;;;;;20.47;12.90;;;5.90;70.20;;;;;;5403978;26;20313;-73
2024/04/24 07:45:53;;;;;;;19.97;12.00;;;5.60;70.70;;;;;;5414831;26;20460;-73
2024/04/24 07:48:19;;;;;;;19.40;11.37;;;5.60;71.30;;;;;;5409333;26;20527;-74
2024/04/24 07:50:47;;;;;;;20.70;12.53;;;5.70;71.40;;;;;;5387016;26;20229;-73
2024/04/24 07:53:16;;;;;;;22.63;12.00;;;5.80;71.60;;;;;;5405264;26;20923;-73
2024/04/24 07:55:42;;;;;;;21.03;12.70;;;5.70;71.00;;;;;;5405118;26;20468;-73
2024/04/24 07:58:07;;;;;;;23.27;13.10;;;5.70;71.00;;;;;;5406459;26;20464;-74
2024/04/24 08:00:33;;;;;;;23.63;12.80;;;5.70;71.10;;;;;;5401766;26;20646;-72
2024/04/24 08:03:01;;;;;;;19.27;11.07;;;5.80;71.30;;;;;;5398621;26;20293;-73
2024/04/24 08:05:27;;;;;;;21.07;13.23;;;6.10;71.30;;;;;;5400428;26;20608;-73
2024/04/24 08:07:52;;;;;;;18.23;11.30;;;6.30;71.00;;;;;;5404855;26;20528;-71
2024/04/24 08:10:18;;;;;;;22.77;11.50;;;6.50;70.70;;;;;;5399421;26;20469;-74
2024/04/24 08:12:43;;;;;;;22.80;14.37;;;6.50;70.20;;;;;;5410583;26;20246;-74
2024/04/24 08:15:09;;;;;;;17.50;10.80;;;6.60;69.80;;;;;;5407829;26;20282;-74
2024/04/24 08:17:35;;;;;;;20.37;11.60;;;6.80;69.70;;;;;;5402703;26;20345;-73
2024/04/24 08:20:01;;;;;;;20.80;10.60;;;6.80;69.10;;;;;;5414701;26;20326;-73
2024/04/24 08:22:26;;;;;;;15.70;8.90;;;6.80;69.40;;;;;;5421571;26;20745;-77
2024/04/24 08:24:52;;;;;;;20.87;12.70;;;6.70;68.00;;;;;;5413658;26;20535;-75
2024/04/24 08:27:17;;;;;;;17.50;10.77;;;6.70;68.80;;;;;;5428665;26;20236;-72
2024/04/24 08:29:43;;;;;;;12.07;9.40;;;6.90;69.20;;;;;;5374022;26;20257;-72
2024/04/24 08:32:08;;;;;;;24.50;10.80;;;7.10;67.00;;;;;;5391550;26;20256;-74
2024/04/24 08:34:35;;;;;;;17.60;10.37;;;6.90;67.70;;;;;;5407145;26;20759;-75
2024/04/24 08:37:01;;;;;;;20.03;10.83;;;7.00;67.90;;;;;;5403484;26;20246;-73
2024/04/24 08:39:27;;;;;;;19.47;11.07;;;7.20;68.00;;;;;;5403073;26;20516;-75
2024/04/24 08:41:55;;;;;;;17.73;10.80;;;7.30;67.60;;;;;;5400442;26;20537;-73
2024/04/24 08:44:24;;;;;;;18.43;11.03;;;7.30;67.30;;;;;;5401761;26;20237;-72
2024/04/24 08:46:51;;;;;;;14.73;9.90;;;7.30;67.60;;;;;;5414861;26;20518;-73
2024/04/24 08:49:19;;;;;;;16.70;11.13;;;7.30;67.50;;;;;;5414596;26;20456;-72
2024/04/24 08:51:46;;;;;;;14.80;9.70;;;7.30;67.90;;;;;;5372583;26;21143;-74
2024/04/24 08:54:17;;;;;;;15.07;10.50;;;7.50;67.50;;;;;;5404436;26;20475;-75
2024/04/24 08:56:46;;;;;;;15.30;9.87;;;7.70;66.90;;;;;;5403908;26;20527;-73
2024/04/24 08:59:20;;;;;;;14.80;10.60;;;7.90;66.10;;;;;;5407009;26;20575;-73
2024/04/24 09:01:56;;;;;;;17.77;11.10;;;7.80;65.30;;;;;;5402585;26;20936;-73
2024/04/24 09:04:24;;;;;;;16.20;10.80;;;7.80;65.70;;;;;;5407693;26;20454;-73
2024/04/24 09:06:50;;;;;;;18.13;10.90;;;7.70;65.80;;;;;;5402816;26;20459;-75
2024/04/24 09:09:17;;;;;;;19.87;11.03;;;7.80;64.10;;;;;;5413133;26;20478;-73
2024/04/24 09:11:42;;;;;;;13.53;9.37;;;7.70;63.50;;;;;;5399222;26;20480;-74
2024/04/24 09:14:08;;;;;;;20.17;10.27;;;7.60;62.80;;;;;;5415907;26;20521;-74
2024/04/24 09:16:35;;;;;;;22.10;12.40;;;7.50;62.90;;;;;;5406957;26;20243;-74
2024/04/24 09:19:01;;;;;;;28.60;12.00;;;7.40;63.70;;;;;;5413767;26;20229;-74
2024/04/24 09:21:31;;;;;;;20.80;11.00;;;7.30;63.90;;;;;;5413548;26;21112;-74
2024/04/24 09:23:57;;;;;;;14.83;9.13;;;7.20;64.20;;;;;;5414933;26;20585;-71
2024/04/24 09:26:23;;;;;;;14.80;9.17;;;7.20;64.40;;;;;;5410297;26;21137;-75
2024/04/24 09:28:50;;;;;;;19.20;11.60;;;7.20;65.00;;;;;;5414227;26;20442;-72
2024/04/24 09:31:18;;;;;;;13.80;9.43;;;7.10;66.70;;;;;;5407829;26;20511;-73
2024/04/24 09:33:45;;;;;;;16.07;8.60;;;6.90;67.90;;;;;;5411082;26;20523;-76
2024/04/24 09:36:11;;;;;;;14.03;9.60;;;6.50;69.40;;;;;;5413543;26;20471;-74
2024/04/24 09:38:38;;;;;;;23.67;11.80;;;6.40;70.50;;;;;;5414380;26;20535;-74
2024/04/24 09:41:05;;;;;;;23.17;12.30;;;6.40;71.10;;;;;;5407790;26;20457;-75
2024/04/24 09:43:31;;;;;;;19.20;10.60;;;6.40;71.00;;;;;;5408621;26;20682;-73
2024/04/24 09:45:59;;;;;;;17.90;11.10;;;6.40;71.00;;;;;;5407213;26;20463;-74
2024/04/24 09:48:25;;;;;;;20.77;11.97;;;6.50;71.10;;;;;;5407668;26;20479;-73
2024/04/24 09:50:51;;;;;;;20.70;11.90;;;6.60;71.10;;;;;;5408609;26;20506;-74
2024/04/24 09:53:17;;;;;;;20.43;11.40;;;6.50;71.10;;;;;;5402621;26;20325;-75
2024/04/24 09:56:15;;;;;;;19.23;11.17;;;6.30;71.10;;;;;;5408318;26;20237;-74
2024/04/24 09:58:47;;;;;;;22.83;12.30;;;6.20;71.40;;;;;;5406026;26;20547;-74
2024/04/24 10:01:16;;;;;;;18.33;12.00;;;6.40;71.40;;;;;;5399823;26;20472;-74
2024/04/24 10:03:43;;;;;;;17.77;11.27;;;6.40;71.40;;;;;;5409956;26;20614;-73
2024/04/24 10:06:13;;;;;;;18.20;11.03;;;6.60;71.10;;;;;;5405994;26;21006;-74
2024/04/24 10:08:42;;;;;;;20.90;12.23;;;6.50;70.70;;;;;;5399427;26;20852;-73
2024/04/24 10:11:12;;;;;;;18.07;11.20;;;6.50;70.80;;;;;;5402092;26;20460;-74
2024/04/24 10:13:40;;;;;;;17.23;11.13;;;6.60;70.70;;;;;;5406874;26;20548;-73
2024/04/24 10:16:07;;;;;;;19.07;11.97;;;6.60;71.30;;;;;;5415338;26;20975;-73
2024/04/24 10:18:34;;;;;;;22.40;11.67;;;6.60;71.00;;;;;;5416917;26;20471;-75
2024/04/24 10:21:03;;;;;;;23.97;11.20;;;6.60;71.10;;;;;;5412750;26;20479;-73
2024/04/24 10:23:29;;;;;;;21.83;10.97;;;6.80;71.10;;;;;;5403121;26;20487;-74
2024/04/24 10:25:56;;;;;;;18.33;11.13;;;7.00;71.30;;;;;;5399309;26;20461;-73
2024/04/24 10:28:23;;;;;;;17.50;11.13;;;7.10;69.90;;;;;;5412057;26;20701;-73
2024/04/24 10:30:50;;;;;;;17.77;10.30;;;7.10;69.90;;;;;;5413543;26;20860;-74
2024/04/24 10:33:16;;;;;;;16.03;10.20;;;7.30;70.20;;;;;;5409243;26;20482;-75
2024/04/24 10:35:42;;;;;;;20.47;11.53;;;7.50;70.10;;;;;;5399184;26;20995;-74
2024/04/24 10:38:08;;;;;;;17.53;11.30;;;7.50;69.90;;;;;;5399985;26;20524;-73
2024/04/24 10:40:34;;;;;;;19.37;13.13;;;7.40;69.90;;;;;;5403131;26;20463;-74
2024/04/24 10:43:05;;;;;;;18.40;12.37;;;7.30;70.10;;;;;;5398983;26;20531;-71
2024/04/24 10:45:36;;;;;;;17.10;11.63;;;7.30;70.40;;;;;;5411157;26;20491;-74
2024/04/24 10:48:02;;;;;;;9.83;7.00;;;7.50;70.70;;;;;;5394198;26;20463;-72
2024/04/24 10:50:28;;;;;;;11.43;6.70;;;7.50;69.50;;;;;;5402131;26;20478;-75
2024/04/24 10:52:55;;;;;;;9.00;6.30;;;7.30;67.90;;;;;;5411372;26;20362;-73
2024/04/24 10:55:22;;;;;;;6.10;3.50;;;7.20;68.50;;;;;;5401166;26;20540;-74
2024/04/24 10:57:49;;;;;;;8.60;5.10;;;7.00;68.30;;;;;;5410486;26;20476;-75
2024/04/24 11:00:16;;;;;;;9.80;5.77;;;7.00;69.10;;;;;;5410203;26;20467;-74
2024/04/24 11:02:44;;;;;;;7.63;5.67;;;7.10;69.20;;;;;;5407985;26;20479;-74
2024/04/24 11:05:11;;;;;;;9.93;6.03;;;7.00;69.10;;;;;;5413071;26;20540;-74
2024/04/24 11:07:37;;;;;;;6.30;5.17;;;7.00;69.40;;;;;;5419706;26;20487;-73
2024/04/24 11:10:04;;;;;;;11.00;6.67;;;7.10;69.40;;;;;;5417825;26;20468;-73
2024/04/24 11:12:29;;;;;;;7.43;3.93;;;7.10;69.40;;;;;;5410363;26;20594;-73
2024/04/24 11:14:55;;;;;;;9.27;5.57;;;7.00;69.70;;;;;;5402556;26;21022;-72
2024/04/24 11:17:24;;;;;;;12.40;6.33;;;6.80;69.90;;;;;;5404192;26;20519;-73
2024/04/24 11:19:50;;;;;;;9.83;6.07;;;6.70;70.40;;;;;;5405732;26;20241;-75
2024/04/24 11:22:27;;;;;;;9.93;7.00;;;6.70;70.50;;;;;;5404894;26;20598;-73
2024/04/24 11:24:55;;;;;;;9.13;5.90;;;6.80;70.70;;;;;;5402010;26;20229;-72
2024/04/24 11:27:24;;;;;;;8.80;4.90;;;6.90;70.40;;;;;;5393684;26;20470;-72
2024/04/24 11:29:50;;;;;;;7.57;5.30;;;7.00;70.20;;;;;;5403598;26;20529;-74
2024/04/24 11:32:16;;;;;;;10.93;5.83;;;6.90;70.20;;;;;;5410776;26;20475;-74
2024/04/24 11:34:42;;;;;;;9.70;5.30;;;6.90;70.10;;;;;;5395003;26;20248;-73
2024/04/24 11:37:08;;;;;;;12.97;6.43;;;7.10;70.10;;;;;;5413675;26;20467;-72
2024/04/24 11:39:35;;;;;;;8.50;5.00;;;7.20;69.80;;;;;;5381821;26;20513;-74
2024/04/24 11:42:01;;;;;;;7.23;5.60;;;7.60;69.90;;;;;;5402932;26;20479;-72
2024/04/24 11:44:28;;;;;;;8.90;5.30;;;7.80;69.40;;;;;;5414791;26;21087;-73
2024/04/24 11:46:53;;;;;;;7.13;4.03;;;7.90;68.80;;;;;;5407017;26;20277;-72
2024/04/24 11:49:19;;;;;;;7.60;4.40;;;7.90;67.60;;;;;;5411916;26;20456;-73
2024/04/24 11:51:49;;;;;;;4.57;3.07;;;7.60;68.60;;;;;;5406120;26;20239;-74
2024/04/24 11:54:15;;;;;;;7.23;3.90;;;7.30;68.80;;;;;;5394355;26;20476;-74
2024/04/24 11:56:41;;;;;;;8.27;5.20;;;7.20;69.10;;;;;;5415433;26;20520;-73
2024/04/24 11:59:09;;;;;;;8.57;5.10;;;7.30;69.10;;;;;;5407393;26;20467;-71
2024/04/24 12:01:38;;;;;;;8.40;4.27;;;7.30;69.10;;;;;;5405231;26;20531;-73
2024/04/24 12:04:05;;;;;;;12.43;5.03;;;7.60;68.50;;;;;;5373853;26;20816;-76
2024/04/24 12:06:40;;;;;;;9.30;5.10;;;7.60;67.90;;;;;;5402383;26;20544;-74
2024/04/24 12:09:10;;;;;;;5.80;2.97;;;7.60;67.90;;;;;;5414154;26;20461;-73
2024/04/24 12:11:42;;;;;;;5.90;4.30;;;7.50;67.50;;;;;;5377373;26;20484;-73
2024/04/24 12:14:14;;;;;;;9.50;5.77;;;7.60;67.90;;;;;;5369245;26;20483;-72
2024/04/24 12:16:41;;;;;;;7.23;4.70;;;7.70;67.90;;;;;;5401707;26;20581;-73
2024/04/24 12:19:07;;;;;;;8.03;4.90;;;7.90;67.60;;;;;;5404031;26;20463;-74
2024/04/24 12:21:32;;;;;;;8.70;4.17;;;8.20;66.40;;;;;;5404432;26;20857;-74
2024/04/24 12:23:58;;;;;;;9.83;3.63;;;8.20;66.30;;;;;;5408773;26;20241;-74
2024/04/24 12:26:23;;;;;;;3.97;3.13;;;8.10;65.80;;;;;;5403562;26;20999;-73
2024/04/24 12:28:49;;;;;;;8.60;5.40;;;7.90;66.60;;;;;;5410802;26;20234;-73
2024/04/24 12:31:15;;;;;;;7.27;4.77;;;8.00;66.40;;;;;;5404747;26;20249;-76
2024/04/24 12:33:41;;;;;;;6.93;4.63;;;8.10;66.60;;;;;;5406262;26;20233;-72
2024/04/24 12:36:07;;;;;;;8.00;5.10;;;8.30;66.70;;;;;;5403661;26;20254;-72
2024/04/24 12:38:33;;;;;;;6.60;3.50;;;8.50;65.30;;;;;;5382063;26;20490;-74
2024/04/24 12:40:59;;;;;;;4.57;3.53;;;8.40;63.90;;;;;;5412924;26;20869;-75
2024/04/24 12:43:24;;;;;;;5.83;4.00;;;8.30;65.00;;;;;;5410871;26;20483;-74
2024/04/24 12:45:50;;;;;;;6.37;3.67;;;8.70;65.10;;;;;;5409909;26;20345;-75
2024/04/24 12:48:16;;;;;;;10.93;4.60;;;9.10;62.90;;;;;;5415050;26;20280;-75